Nahant, MA (01908)

1:37 PM EDT on August 29, 2015 (GMT -0400)
APRSWXNET | | Change Station
CLOSE
Current Station
Personal Weather Station
Location: Swampscott, MA
Elevation: 82 ft
Nearby Weather Stations

Elev 82 ft 42.47 °N, 70.91 °W | Updated 21 minutes ago

Clear
Clear
79 °F
Feels Like 80 °F
N
3
Wind Variable Wind from SSW
Gusts 9.0 mph

Today
High -- | Low -- °F
--% Chance of Precip.
Yesterday
High -- | Low -- °F
Precip. -- in
6:05 AM 7:23 PM
Full, 100% visible
Pressure 30.16 in
Visibility 10.0 miles
Clouds Few 5500 ft
Heat Index 80 °F
Dew Point 61 °F
Humidity 55%
Rainfall in
Snow Depth Not available.
UV 9 out of 12
Pollen 10.30 out of 12
Air Quality Not available.
Flu Activity Not available.
METAR KBOS 291654Z 25009G16KT 10SM FEW055 26/12 A3015 RMK AO2 SLP211 T02610122
Pressure 30.16 in
Visibility 10.0 miles
Clouds Few 5500 ft
Heat Index 80 °F
Dew Point 61 °F
Humidity 55%
Rainfall in
Snow Depth Not available.
UV 9 out of 12
Pollen 10.30 out of 12
Air Quality Not available.
Flu Activity Not available.
METAR KBOS 291654Z 25009G16KT 10SM FEW055 26/12 A3015 RMK AO2 SLP211 T02610122

10-Day Weather Forecast

×

Almanac

Astronomy

Aug. 29, 2015 Rise Set
Actual Time
Civil Twilight
Nautical Twilight
Astronomical Twilight
Moon
Length of Visible Light
Length of Day
Tomorrow will be .
, % of the Moon is Illuminated

Today's Extremes

State Highs State Lows

Community

WunderPhotos

Upload Photos

1,850,735 photos uploaded!

WunderBlogs® & News

Nearby

Air Quality

  Air Quality AQ Index Pollutant
Not available.

Snow Depth

Station Depth Elevation

Earthquake Activity

City Distance Mag. Time & Date
Minimum magnitude displayed is 2.5.

Coastal Water Temperatures

Place Temperature

Stations

Nearby Weather Stations

Station Location Temp. Windchill Dew Point Humidity Wind Precip. Elev Updated Type